Terminal Aerodrome Forecast
Issued by NWS Binghamton, NY

Home | Current Version | Previous Version | Text Only | Print | Product List | Glossary On
Versions: 1 2 3 4 5 6 7 8 9 10 11 12 13 14
000
FTUS41 KBGM 012300
TAFAVP
TAF
KAVP 012334Z 0200/0224 09004KT P6SM SCT035
     FM020900 VRB03KT 3SM BR BKN025
     FM021400 03005KT P6SM BKN040
     FM021900 VRB04KT P6SM SCT040=

USA.gov is the U.S. government's official web portal to all federal, state and local government web resources and services.